MAS1138 WMKK-WMKP
Flight info
| Callsign | MAS1138 |
|---|---|
| Flight time | 0h 44m |
| Altitude | 24000 |
| Route | ATIMU1D ATIMU Y506 TEPUS DCT GORVU |
| Aircraft | B738/M-SDE2E3FGHIRWXY/LB1 |
Departure
| Time | 2026-05-09 04:11 |
|---|---|
| Airport | Kuala Lumpur International Airport (WMKK) |
Arrival
| Time | 2026-05-09 04:55 |
|---|---|
| Airport | Penang International Airport (WMKP) |
| Time | Latitude | Longitude | Altitude | Speed | Heading |
|---|---|---|---|---|---|
| 2026-05-09 03:36 | 2.75333 | 101.70737 | 72 ft | 0 kts | 310° |
| 2026-05-09 04:00 | 2.75321 | 101.70749 | 62 ft | 4 kts | 322° |
| 2026-05-09 04:00 | 2.75298 | 101.70764 | 62 ft | 4 kts | 327° |
| 2026-05-09 04:01 | 2.75278 | 101.70780 | 64 ft | 4 kts | 302° |
| 2026-05-09 04:01 | 2.75273 | 101.70802 | 62 ft | 4 kts | 251° |
| 2026-05-09 04:01 | 2.75280 | 101.70818 | 68 ft | 1 kts | 236° |
| 2026-05-09 04:01 | 2.75282 | 101.70820 | 69 ft | 0 kts | 236° |
| 2026-05-09 04:04 | 2.75280 | 101.70817 | 66 ft | 2 kts | 236° |
| 2026-05-09 04:04 | 2.75265 | 101.70795 | 62 ft | 6 kts | 236° |
| 2026-05-09 04:04 | 2.75260 | 101.70787 | 62 ft | 7 kts | 236° |
| 2026-05-09 04:04 | 2.75233 | 101.70747 | 67 ft | 10 kts | 236° |
| 2026-05-09 04:05 | 2.75172 | 101.70724 | 67 ft | 10 kts | 160° |
| 2026-05-09 04:05 | 2.75115 | 101.70762 | 67 ft | 10 kts | 146° |
| 2026-05-09 04:05 | 2.75054 | 101.70782 | 67 ft | 10 kts | 198° |
| 2026-05-09 04:05 | 2.75010 | 101.70734 | 69 ft | 9 kts | 236° |
| 2026-05-09 04:06 | 2.74974 | 101.70681 | 64 ft | 9 kts | 236° |
| 2026-05-09 04:06 | 2.74939 | 101.70630 | 67 ft | 9 kts | 236° |
| 2026-05-09 04:06 | 2.74904 | 101.70579 | 65 ft | 9 kts | 236° |
| 2026-05-09 04:06 | 2.74868 | 101.70525 | 66 ft | 10 kts | 236° |
| 2026-05-09 04:07 | 2.74828 | 101.70467 | 67 ft | 10 kts | 236° |
| 2026-05-09 04:07 | 2.74786 | 101.70405 | 66 ft | 11 kts | 236° |
| 2026-05-09 04:07 | 2.74741 | 101.70338 | 65 ft | 12 kts | 236° |
| 2026-05-09 04:07 | 2.74694 | 101.70268 | 66 ft | 13 kts | 236° |
| 2026-05-09 04:08 | 2.74643 | 101.70194 | 62 ft | 13 kts | 236° |
| 2026-05-09 04:08 | 2.74590 | 101.70115 | 59 ft | 14 kts | 236° |
| 2026-05-09 04:08 | 2.74535 | 101.70034 | 62 ft | 14 kts | 236° |
| 2026-05-09 04:08 | 2.74478 | 101.69949 | 57 ft | 15 kts | 236° |
| 2026-05-09 04:09 | 2.74425 | 101.69872 | 58 ft | 12 kts | 236° |
| 2026-05-09 04:09 | 2.74375 | 101.69804 | 57 ft | 12 kts | 219° |
| 2026-05-09 04:09 | 2.74299 | 101.69813 | 57 ft | 12 kts | 147° |
| 2026-05-09 04:09 | 2.74228 | 101.69861 | 60 ft | 17 kts | 146° |
| 2026-05-09 04:10 | 2.73983 | 101.70026 | 56 ft | 79 kts | 146° |
| 2026-05-09 04:10 | 2.73329 | 101.70463 | 56 ft | 144 kts | 146° |
| 2026-05-09 04:10 | 2.72360 | 101.71111 | 215 ft | 182 kts | 146° |
| 2026-05-09 04:10 | 2.71631 | 101.71599 | 611 ft | 192 kts | 147° |
| 2026-05-09 04:11 | 2.70127 | 101.72583 | 1734 ft | 186 kts | 150° |
| 2026-05-09 04:11 | 2.69050 | 101.73283 | 2529 ft | 190 kts | 146° |
| 2026-05-09 04:11 | 2.67868 | 101.74094 | 2780 ft | 222 kts | 146° |
| 2026-05-09 04:11 | 2.66972 | 101.74705 | 2910 ft | 239 kts | 146° |
| 2026-05-09 04:12 | 2.65028 | 101.76020 | 3397 ft | 264 kts | 146° |
| 2026-05-09 04:12 | 2.63989 | 101.76721 | 3851 ft | 269 kts | 146° |
| 2026-05-09 04:12 | 2.61918 | 101.78111 | 4839 ft | 273 kts | 146° |
| 2026-05-09 04:12 | 2.60846 | 101.78828 | 5341 ft | 275 kts | 146° |
| 2026-05-09 04:13 | 2.59245 | 101.79898 | 6066 ft | 279 kts | 146° |
| 2026-05-09 04:13 | 2.57618 | 101.80985 | 6769 ft | 283 kts | 146° |
| 2026-05-09 04:13 | 2.55859 | 101.81869 | 7489 ft | 286 kts | 166° |
| 2026-05-09 04:13 | 2.53878 | 101.81980 | 8247 ft | 288 kts | 190° |
| 2026-05-09 04:14 | 2.52006 | 101.81283 | 9017 ft | 291 kts | 214° |
| 2026-05-09 04:14 | 2.50578 | 101.79859 | 9798 ft | 293 kts | 234° |
| 2026-05-09 04:14 | 2.49414 | 101.78162 | 10414 ft | 303 kts | 236° |
| 2026-05-09 04:14 | 2.48250 | 101.76320 | 10723 ft | 322 kts | 244° |
| 2026-05-09 04:15 | 2.47699 | 101.74132 | 11319 ft | 329 kts | 269° |
| 2026-05-09 04:15 | 2.48097 | 101.71884 | 12037 ft | 333 kts | 294° |
| 2026-05-09 04:15 | 2.49413 | 101.70027 | 12758 ft | 336 kts | 319° |
| 2026-05-09 04:15 | 2.51311 | 101.68638 | 13512 ft | 340 kts | 327° |
| 2026-05-09 04:16 | 2.53306 | 101.67341 | 14188 ft | 345 kts | 328° |
| 2026-05-09 04:16 | 2.55340 | 101.66039 | 14843 ft | 350 kts | 328° |
| 2026-05-09 04:16 | 2.57393 | 101.64705 | 15536 ft | 354 kts | 327° |
| 2026-05-09 04:16 | 2.59457 | 101.63342 | 16235 ft | 358 kts | 327° |
| 2026-05-09 04:17 | 2.61541 | 101.61953 | 16903 ft | 362 kts | 327° |
| 2026-05-09 04:17 | 2.63645 | 101.60534 | 17554 ft | 368 kts | 325° |
| 2026-05-09 04:17 | 2.65515 | 101.58761 | 18180 ft | 374 kts | 313° |
| 2026-05-09 04:17 | 2.67231 | 101.56789 | 18739 ft | 378 kts | 311° |
| 2026-05-09 04:18 | 2.68944 | 101.54771 | 19324 ft | 382 kts | 311° |
| 2026-05-09 04:18 | 2.70671 | 101.52744 | 19901 ft | 385 kts | 311° |
| 2026-05-09 04:18 | 2.72426 | 101.50705 | 20466 ft | 389 kts | 312° |
| 2026-05-09 04:18 | 2.74206 | 101.48656 | 21053 ft | 391 kts | 312° |
| 2026-05-09 04:19 | 2.75999 | 101.46603 | 21760 ft | 390 kts | 312° |
| 2026-05-09 04:19 | 2.77778 | 101.44571 | 22535 ft | 387 kts | 312° |
| 2026-05-09 04:19 | 2.79552 | 101.42547 | 23258 ft | 387 kts | 312° |
| 2026-05-09 04:19 | 2.81328 | 101.40522 | 23767 ft | 388 kts | 312° |
| 2026-05-09 04:20 | 2.83107 | 101.38492 | 23844 ft | 388 kts | 312° |
| 2026-05-09 04:20 | 2.84859 | 101.36439 | 23873 ft | 388 kts | 308° |
| 2026-05-09 04:20 | 2.86352 | 101.34190 | 23880 ft | 390 kts | 302° |
| 2026-05-09 04:20 | 2.87733 | 101.31852 | 23881 ft | 391 kts | 301° |
| 2026-05-09 04:21 | 2.89091 | 101.29496 | 23886 ft | 391 kts | 301° |
| 2026-05-09 04:21 | 2.90461 | 101.27142 | 23891 ft | 392 kts | 301° |
| 2026-05-09 04:21 | 2.93254 | 101.22456 | 23895 ft | 392 kts | 302° |
| 2026-05-09 04:22 | 2.94665 | 101.20118 | 23890 ft | 392 kts | 302° |
| 2026-05-09 04:22 | 2.96076 | 101.17788 | 23885 ft | 392 kts | 302° |
| 2026-05-09 04:22 | 2.97486 | 101.15460 | 23890 ft | 391 kts | 302° |
| 2026-05-09 04:22 | 2.98896 | 101.13130 | 23894 ft | 391 kts | 302° |
| 2026-05-09 04:23 | 3.00545 | 101.10991 | 23884 ft | 388 kts | 319° |
| 2026-05-09 04:23 | 3.02738 | 101.09467 | 23911 ft | 383 kts | 332° |
| 2026-05-09 04:23 | 3.05067 | 101.08163 | 23899 ft | 383 kts | 333° |
| 2026-05-09 04:23 | 3.07409 | 101.06894 | 23896 ft | 383 kts | 333° |
| 2026-05-09 04:24 | 3.09755 | 101.05616 | 23894 ft | 384 kts | 333° |
| 2026-05-09 04:24 | 3.12092 | 101.04326 | 23893 ft | 384 kts | 333° |
| 2026-05-09 04:24 | 3.14422 | 101.03024 | 23897 ft | 384 kts | 333° |
| 2026-05-09 04:24 | 3.16751 | 101.01715 | 23897 ft | 384 kts | 333° |
| 2026-05-09 04:25 | 3.19079 | 101.00403 | 23892 ft | 384 kts | 333° |
| 2026-05-09 04:25 | 3.21412 | 100.99089 | 23896 ft | 385 kts | 333° |
| 2026-05-09 04:25 | 3.23868 | 100.98086 | 23883 ft | 380 kts | 351° |
| 2026-05-09 04:25 | 3.26477 | 100.97865 | 23910 ft | 376 kts | 2° |
| 2026-05-09 04:26 | 3.29095 | 100.97869 | 23897 ft | 376 kts | 3° |
| 2026-05-09 04:26 | 3.31713 | 100.97911 | 23889 ft | 376 kts | 4° |
| 2026-05-09 04:26 | 3.34332 | 100.97956 | 23895 ft | 377 kts | 3° |
| 2026-05-09 04:26 | 3.36955 | 100.97989 | 23895 ft | 377 kts | 3° |
| 2026-05-09 04:27 | 3.39545 | 100.98012 | 23891 ft | 377 kts | 3° |
| 2026-05-09 04:27 | 3.42170 | 100.98027 | 23892 ft | 377 kts | 3° |
| 2026-05-09 04:27 | 3.44792 | 100.98037 | 23894 ft | 377 kts | 2° |
| 2026-05-09 04:27 | 3.47416 | 100.98045 | 23898 ft | 377 kts | 2° |
| 2026-05-09 04:28 | 3.50039 | 100.98052 | 23890 ft | 377 kts | 2° |
| 2026-05-09 04:28 | 3.52659 | 100.98059 | 23895 ft | 377 kts | 2° |
| 2026-05-09 04:28 | 3.55278 | 100.98066 | 23889 ft | 376 kts | 2° |
| 2026-05-09 04:28 | 3.57896 | 100.98074 | 23896 ft | 376 kts | 2° |
| 2026-05-09 04:29 | 3.60510 | 100.98081 | 23895 ft | 376 kts | 2° |
| 2026-05-09 04:29 | 3.63123 | 100.98088 | 23890 ft | 375 kts | 2° |
| 2026-05-09 04:29 | 3.65737 | 100.98093 | 23888 ft | 375 kts | 1° |
| 2026-05-09 04:29 | 3.68315 | 100.97677 | 23881 ft | 380 kts | 342° |
| 2026-05-09 04:30 | 3.70763 | 100.96662 | 23897 ft | 381 kts | 338° |
| 2026-05-09 04:30 | 3.73178 | 100.95568 | 23891 ft | 382 kts | 338° |
| 2026-05-09 04:30 | 3.75594 | 100.94452 | 23897 ft | 382 kts | 337° |
| 2026-05-09 04:30 | 3.78007 | 100.93343 | 23893 ft | 382 kts | 338° |
| 2026-05-09 04:31 | 3.80433 | 100.92239 | 23893 ft | 382 kts | 338° |
| 2026-05-09 04:31 | 3.82859 | 100.91145 | 23892 ft | 383 kts | 338° |
| 2026-05-09 04:31 | 3.85287 | 100.90057 | 23894 ft | 382 kts | 338° |
| 2026-05-09 04:31 | 3.87711 | 100.88975 | 23890 ft | 382 kts | 338° |
| 2026-05-09 04:32 | 3.90136 | 100.87895 | 23889 ft | 381 kts | 338° |
| 2026-05-09 04:32 | 3.92555 | 100.86818 | 23880 ft | 380 kts | 338° |
| 2026-05-09 04:32 | 3.94979 | 100.85739 | 23588 ft | 380 kts | 338° |
| 2026-05-09 04:32 | 3.97389 | 100.84666 | 23235 ft | 379 kts | 338° |
| 2026-05-09 04:33 | 3.99785 | 100.83599 | 22837 ft | 376 kts | 338° |
| 2026-05-09 04:33 | 4.02162 | 100.82540 | 22442 ft | 373 kts | 338° |
| 2026-05-09 04:33 | 4.04524 | 100.81488 | 22054 ft | 370 kts | 338° |
| 2026-05-09 04:33 | 4.06870 | 100.80443 | 21674 ft | 368 kts | 338° |
| 2026-05-09 04:34 | 4.09198 | 100.79406 | 21292 ft | 365 kts | 338° |
| 2026-05-09 04:34 | 4.11517 | 100.78373 | 20913 ft | 363 kts | 338° |
| 2026-05-09 04:34 | 4.13790 | 100.77360 | 20540 ft | 362 kts | 338° |
| 2026-05-09 04:34 | 4.16085 | 100.76338 | 20160 ft | 360 kts | 338° |
| 2026-05-09 04:35 | 4.18374 | 100.75323 | 19769 ft | 359 kts | 338° |
| 2026-05-09 04:35 | 4.20660 | 100.74324 | 19389 ft | 358 kts | 339° |
| 2026-05-09 04:35 | 4.22946 | 100.73331 | 18998 ft | 357 kts | 339° |
| 2026-05-09 04:35 | 4.25224 | 100.72342 | 18619 ft | 357 kts | 339° |
| 2026-05-09 04:36 | 4.27499 | 100.71354 | 18230 ft | 356 kts | 339° |
| 2026-05-09 04:36 | 4.29765 | 100.70368 | 17814 ft | 355 kts | 339° |
| 2026-05-09 04:36 | 4.32025 | 100.69384 | 17417 ft | 353 kts | 338° |
| 2026-05-09 04:36 | 4.34266 | 100.68405 | 17037 ft | 350 kts | 337° |
| 2026-05-09 04:37 | 4.36359 | 100.67196 | 16857 ft | 343 kts | 328° |
| 2026-05-09 04:37 | 4.38315 | 100.65864 | 16630 ft | 337 kts | 327° |
| 2026-05-09 04:37 | 4.40233 | 100.64521 | 16281 ft | 336 kts | 326° |
| 2026-05-09 04:37 | 4.42145 | 100.63179 | 15915 ft | 335 kts | 326° |
| 2026-05-09 04:38 | 4.44051 | 100.61849 | 15591 ft | 333 kts | 327° |
| 2026-05-09 04:38 | 4.45951 | 100.60532 | 15275 ft | 331 kts | 327° |
| 2026-05-09 04:38 | 4.47838 | 100.59230 | 14952 ft | 329 kts | 327° |
| 2026-05-09 04:38 | 4.49721 | 100.57936 | 14626 ft | 327 kts | 327° |
| 2026-05-09 04:39 | 4.51591 | 100.56653 | 14310 ft | 325 kts | 327° |
| 2026-05-09 04:39 | 4.53452 | 100.55377 | 13998 ft | 323 kts | 327° |
| 2026-05-09 04:39 | 4.55304 | 100.54109 | 13683 ft | 322 kts | 327° |
| 2026-05-09 04:39 | 4.57148 | 100.52847 | 13334 ft | 320 kts | 327° |
| 2026-05-09 04:40 | 4.58978 | 100.51595 | 13000 ft | 318 kts | 327° |
| 2026-05-09 04:40 | 4.60796 | 100.50351 | 12677 ft | 315 kts | 326° |
| 2026-05-09 04:40 | 4.62604 | 100.49113 | 12333 ft | 314 kts | 326° |
| 2026-05-09 04:40 | 4.64403 | 100.47883 | 12018 ft | 312 kts | 326° |
| 2026-05-09 04:41 | 4.66181 | 100.46666 | 11799 ft | 306 kts | 326° |
| 2026-05-09 04:41 | 4.67911 | 100.45482 | 11663 ft | 298 kts | 326° |
| 2026-05-09 04:41 | 4.69609 | 100.44320 | 11399 ft | 295 kts | 326° |
| 2026-05-09 04:41 | 4.71303 | 100.43160 | 11088 ft | 294 kts | 326° |
| 2026-05-09 04:42 | 4.72990 | 100.42006 | 10793 ft | 293 kts | 326° |
| 2026-05-09 04:42 | 4.74666 | 100.40859 | 10509 ft | 291 kts | 326° |
| 2026-05-09 04:42 | 4.76335 | 100.39717 | 10225 ft | 290 kts | 326° |
| 2026-05-09 04:42 | 4.77993 | 100.38582 | 9954 ft | 288 kts | 326° |
| 2026-05-09 04:43 | 4.79643 | 100.37452 | 9668 ft | 286 kts | 326° |
| 2026-05-09 04:43 | 4.81281 | 100.36331 | 9368 ft | 285 kts | 326° |
| 2026-05-09 04:43 | 4.82914 | 100.35213 | 9071 ft | 283 kts | 326° |
| 2026-05-09 04:43 | 4.84507 | 100.34122 | 9022 ft | 269 kts | 326° |
| 2026-05-09 04:44 | 4.86005 | 100.33096 | 8935 ft | 253 kts | 326° |
| 2026-05-09 04:44 | 4.87398 | 100.32141 | 8815 ft | 233 kts | 326° |
| 2026-05-09 04:44 | 4.88681 | 100.31262 | 8676 ft | 215 kts | 326° |
| 2026-05-09 04:44 | 4.89865 | 100.30450 | 8546 ft | 199 kts | 326° |
| 2026-05-09 04:45 | 4.90978 | 100.29688 | 8300 ft | 191 kts | 326° |
| 2026-05-09 04:45 | 4.92074 | 100.28938 | 7941 ft | 191 kts | 326° |
| 2026-05-09 04:45 | 4.93171 | 100.28188 | 7582 ft | 190 kts | 326° |
| 2026-05-09 04:45 | 4.94259 | 100.27442 | 7244 ft | 189 kts | 326° |
| 2026-05-09 04:46 | 4.95342 | 100.26700 | 6922 ft | 188 kts | 326° |
| 2026-05-09 04:46 | 4.96416 | 100.25965 | 6599 ft | 186 kts | 326° |
| 2026-05-09 04:46 | 4.97481 | 100.25236 | 6273 ft | 185 kts | 326° |
| 2026-05-09 04:46 | 4.98542 | 100.24509 | 5930 ft | 184 kts | 326° |
| 2026-05-09 04:47 | 4.99600 | 100.23784 | 5583 ft | 184 kts | 326° |
| 2026-05-09 04:47 | 5.00651 | 100.23064 | 5248 ft | 183 kts | 326° |
| 2026-05-09 04:47 | 5.01700 | 100.22346 | 4917 ft | 182 kts | 326° |
| 2026-05-09 04:47 | 5.02727 | 100.21641 | 4595 ft | 181 kts | 326° |
| 2026-05-09 04:48 | 5.03777 | 100.20922 | 4257 ft | 180 kts | 326° |
| 2026-05-09 04:48 | 5.04793 | 100.20225 | 3938 ft | 179 kts | 326° |
| 2026-05-09 04:48 | 5.05828 | 100.19516 | 3626 ft | 177 kts | 326° |
| 2026-05-09 04:48 | 5.06840 | 100.18822 | 3293 ft | 176 kts | 326° |
| 2026-05-09 04:49 | 5.07852 | 100.18129 | 2932 ft | 176 kts | 326° |
| 2026-05-09 04:49 | 5.08857 | 100.17440 | 2705 ft | 171 kts | 326° |
| 2026-05-09 04:49 | 5.09839 | 100.16767 | 2580 ft | 171 kts | 326° |
| 2026-05-09 04:49 | 5.10829 | 100.16089 | 2508 ft | 174 kts | 326° |
| 2026-05-09 04:50 | 5.11827 | 100.15405 | 2369 ft | 178 kts | 325° |
| 2026-05-09 04:50 | 5.12850 | 100.14704 | 2193 ft | 177 kts | 326° |
| 2026-05-09 04:50 | 5.13970 | 100.14289 | 2002 ft | 173 kts | 6° |
| 2026-05-09 04:50 | 5.15037 | 100.14799 | 2001 ft | 173 kts | 36° |
| 2026-05-09 04:51 | 5.16020 | 100.15493 | 1977 ft | 171 kts | 34° |
| 2026-05-09 04:51 | 5.16979 | 100.16181 | 1960 ft | 169 kts | 38° |
| 2026-05-09 04:51 | 5.17884 | 100.16927 | 1970 ft | 169 kts | 41° |
| 2026-05-09 04:51 | 5.18766 | 100.17709 | 1963 ft | 169 kts | 42° |
| 2026-05-09 04:52 | 5.19622 | 100.18483 | 1960 ft | 162 kts | 42° |
| 2026-05-09 04:52 | 5.20434 | 100.19223 | 1970 ft | 153 kts | 42° |
| 2026-05-09 04:52 | 5.21213 | 100.19932 | 1882 ft | 150 kts | 42° |
| 2026-05-09 04:52 | 5.21984 | 100.20635 | 1703 ft | 148 kts | 42° |
| 2026-05-09 04:53 | 5.22729 | 100.21313 | 1558 ft | 144 kts | 42° |
| 2026-05-09 04:53 | 5.23477 | 100.21994 | 1339 ft | 144 kts | 42° |
| 2026-05-09 04:53 | 5.24211 | 100.22663 | 1148 ft | 141 kts | 42° |
| 2026-05-09 04:53 | 5.24937 | 100.23324 | 973 ft | 141 kts | 41° |
| 2026-05-09 04:54 | 5.25668 | 100.23990 | 810 ft | 143 kts | 42° |
| 2026-05-09 04:54 | 5.26412 | 100.24668 | 630 ft | 145 kts | 42° |
| 2026-05-09 04:54 | 5.27151 | 100.25341 | 479 ft | 143 kts | 42° |
| 2026-05-09 04:54 | 5.27886 | 100.26018 | 299 ft | 145 kts | 43° |
| 2026-05-09 04:55 | 5.28624 | 100.26694 | 87 ft | 141 kts | 43° |
| 2026-05-09 04:55 | 5.29292 | 100.27301 | 19 ft | 118 kts | 42° |
| 2026-05-09 04:55 | 5.29812 | 100.27773 | 20 ft | 84 kts | 41° |
| 2026-05-09 04:55 | 5.30071 | 100.28008 | 21 ft | 15 kts | 42° |
| 2026-05-09 04:56 | 5.30155 | 100.28031 | 22 ft | 12 kts | 313° |
| 2026-05-09 04:56 | 5.30205 | 100.27971 | 20 ft | 10 kts | 313° |
| 2026-05-09 04:56 | 5.30229 | 100.27912 | 18 ft | 10 kts | 246° |
| 2026-05-09 04:56 | 5.30184 | 100.27861 | 18 ft | 10 kts | 225° |
| 2026-05-09 04:57 | 5.30153 | 100.27830 | 18 ft | 9 kts | 223° |
| 2026-05-09 04:57 | 5.30106 | 100.27786 | 19 ft | 9 kts | 223° |
| 2026-05-09 04:57 | 5.30044 | 100.27728 | 18 ft | 9 kts | 223° |
| 2026-05-09 04:57 | 5.30000 | 100.27688 | 18 ft | 9 kts | 222° |
| 2026-05-09 04:58 | 5.29956 | 100.27647 | 18 ft | 9 kts | 222° |
| 2026-05-09 04:58 | 5.29908 | 100.27603 | 18 ft | 10 kts | 222° |
| 2026-05-09 04:58 | 5.29853 | 100.27552 | 18 ft | 11 kts | 223° |
| 2026-05-09 04:58 | 5.29792 | 100.27496 | 18 ft | 12 kts | 223° |
| 2026-05-09 04:59 | 5.29749 | 100.27456 | 18 ft | 13 kts | 223° |
| 2026-05-09 04:59 | 5.29683 | 100.27396 | 17 ft | 13 kts | 222° |
| 2026-05-09 04:59 | 5.29616 | 100.27336 | 17 ft | 13 kts | 221° |
| 2026-05-09 04:59 | 5.29553 | 100.27279 | 17 ft | 12 kts | 222° |
| 2026-05-09 05:00 | 5.29487 | 100.27219 | 17 ft | 13 kts | 222° |
| 2026-05-09 05:00 | 5.29421 | 100.27160 | 18 ft | 13 kts | 222° |
| 2026-05-09 05:00 | 5.29357 | 100.27101 | 19 ft | 12 kts | 223° |
| 2026-05-09 05:00 | 5.29294 | 100.27042 | 19 ft | 12 kts | 223° |
| 2026-05-09 05:01 | 5.29231 | 100.26985 | 18 ft | 12 kts | 222° |
| 2026-05-09 05:01 | 5.29192 | 100.26918 | 18 ft | 12 kts | 285° |
| 2026-05-09 05:01 | 5.29243 | 100.26848 | 17 ft | 13 kts | 302° |
| 2026-05-09 05:01 | 5.29218 | 100.26782 | 17 ft | 9 kts | 224° |
| 2026-05-09 05:02 | 5.29176 | 100.26742 | 17 ft | 8 kts | 224° |
| 2026-05-09 05:02 | 5.29157 | 100.26703 | 17 ft | 6 kts | 289° |
| 2026-05-09 05:02 | 5.29193 | 100.26681 | 17 ft | 6 kts | 319° |
| 2026-05-09 05:02 | 5.29209 | 100.26663 | 17 ft | 3 kts | 312° |
| 2026-05-09 05:03 | 5.29221 | 100.26650 | 17 ft | 0 kts | 312° |